sensor_id;sensor_type;location;lat;lon;timestamp;temperature;humidity
37782;DHT22;23621;50.878;4.584;2023-09-08T00:00:14;27.40;80.60
37782;DHT22;23621;50.878;4.584;2023-09-08T00:03:02;27.30;80.50
37782;DHT22;23621;50.878;4.584;2023-09-08T00:05:50;27.50;81.00
37782;DHT22;23621;50.878;4.584;2023-09-08T00:08:37;27.50;80.10
37782;DHT22;23621;50.878;4.584;2023-09-08T00:11:24;27.50;80.10
37782;DHT22;23621;50.878;4.584;2023-09-08T00:14:11;27.50;80.10
37782;DHT22;23621;50.878;4.584;2023-09-08T00:16:58;27.30;80.80
37782;DHT22;23621;50.878;4.584;2023-09-08T00:19:46;27.20;80.90
37782;DHT22;23621;50.878;4.584;2023-09-08T00:22:34;27.30;80.50
37782;DHT22;23621;50.878;4.584;2023-09-08T00:25:21;27.30;80.10
37782;DHT22;23621;50.878;4.584;2023-09-08T00:28:08;27.40;79.90
37782;DHT22;23621;50.878;4.584;2023-09-08T00:30:56;27.30;80.00
37782;DHT22;23621;50.878;4.584;2023-09-08T00:33:43;27.10;80.30
37782;DHT22;23621;50.878;4.584;2023-09-08T00:36:32;27.00;80.30
37782;DHT22;23621;50.878;4.584;2023-09-08T00:39:19;27.20;79.80
37782;DHT22;23621;50.878;4.584;2023-09-08T00:42:06;27.20;79.50
37782;DHT22;23621;50.878;4.584;2023-09-08T00:44:54;27.20;79.50
37782;DHT22;23621;50.878;4.584;2023-09-08T00:47:41;27.20;79.30
37782;DHT22;23621;50.878;4.584;2023-09-08T00:50:28;27.20;79.30
37782;DHT22;23621;50.878;4.584;2023-09-08T00:53:15;27.20;79.20
37782;DHT22;23621;50.878;4.584;2023-09-08T00:56:03;27.20;79.10
37782;DHT22;23621;50.878;4.584;2023-09-08T00:58:51;27.20;79.10
37782;DHT22;23621;50.878;4.584;2023-09-08T01:01:38;27.10;79.20
37782;DHT22;23621;50.878;4.584;2023-09-08T01:04:25;27.10;79.50
37782;DHT22;23621;50.878;4.584;2023-09-08T01:07:14;27.00;79.60
37782;DHT22;23621;50.878;4.584;2023-09-08T01:10:01;27.00;81.10
37782;DHT22;23621;50.878;4.584;2023-09-08T01:12:53;26.90;80.90
37782;DHT22;23621;50.878;4.584;2023-09-08T01:15:40;26.90;80.60
37782;DHT22;23621;50.878;4.584;2023-09-08T01:18:28;26.70;80.60
37782;DHT22;23621;50.878;4.584;2023-09-08T01:24:33;26.90;80.20
37782;DHT22;23621;50.878;4.584;2023-09-08T01:27:25;27.00;80.70
37782;DHT22;23621;50.878;4.584;2023-09-08T01:30:15;26.90;79.80
37782;DHT22;23621;50.878;4.584;2023-09-08T01:33:02;26.90;80.10
37782;DHT22;23621;50.878;4.584;2023-09-08T01:35:50;26.70;80.30
37782;DHT22;23621;50.878;4.584;2023-09-08T01:38:39;26.70;80.40
37782;DHT22;23621;50.878;4.584;2023-09-08T01:41:27;26.90;80.00
37782;DHT22;23621;50.878;4.584;2023-09-08T01:44:14;26.80;80.00
37782;DHT22;23621;50.878;4.584;2023-09-08T01:47:01;26.70;80.00
37782;DHT22;23621;50.878;4.584;2023-09-08T01:49:49;26.90;79.50
37782;DHT22;23621;50.878;4.584;2023-09-08T01:52:36;26.90;79.10
37782;DHT22;23621;50.878;4.584;2023-09-08T01:55:23;27.00;78.90
37782;DHT22;23621;50.878;4.584;2023-09-08T01:58:10;26.90;78.70
37782;DHT22;23621;50.878;4.584;2023-09-08T02:00:58;26.90;78.60
37782;DHT22;23621;50.878;4.584;2023-09-08T02:03:50;26.80;78.60
37782;DHT22;23621;50.878;4.584;2023-09-08T02:06:37;26.80;78.70
37782;DHT22;23621;50.878;4.584;2023-09-08T02:09:35;26.70;78.50
37782;DHT22;23621;50.878;4.584;2023-09-08T02:12:23;26.70;78.60
37782;DHT22;23621;50.878;4.584;2023-09-08T02:15:11;26.60;78.60
37782;DHT22;23621;50.878;4.584;2023-09-08T02:17:58;26.60;78.70
37782;DHT22;23621;50.878;4.584;2023-09-08T02:20:46;26.50;78.60
37782;DHT22;23621;50.878;4.584;2023-09-08T02:23:33;26.50;78.60
37782;DHT22;23621;50.878;4.584;2023-09-08T02:26:20;26.50;78.70
37782;DHT22;23621;50.878;4.584;2023-09-08T02:29:07;26.50;78.70
37782;DHT22;23621;50.878;4.584;2023-09-08T02:31:55;26.40;78.70
37782;DHT22;23621;50.878;4.584;2023-09-08T02:34:42;26.40;78.70
37782;DHT22;23621;50.878;4.584;2023-09-08T02:37:30;26.30;78.70
37782;DHT22;23621;50.878;4.584;2023-09-08T02:40:17;26.30;78.70
37782;DHT22;23621;50.878;4.584;2023-09-08T02:43:06;26.30;78.80
37782;DHT22;23621;50.878;4.584;2023-09-08T02:45:53;26.30;78.80
37782;DHT22;23621;50.878;4.584;2023-09-08T02:48:40;26.30;78.90
37782;DHT22;23621;50.878;4.584;2023-09-08T02:51:28;26.20;78.90
37782;DHT22;23621;50.878;4.584;2023-09-08T02:54:15;26.20;79.00
37782;DHT22;23621;50.878;4.584;2023-09-08T02:57:02;26.20;79.10
37782;DHT22;23621;50.878;4.584;2023-09-08T02:59:50;26.20;79.20
37782;DHT22;23621;50.878;4.584;2023-09-08T03:02:43;26.20;79.30
37782;DHT22;23621;50.878;4.584;2023-09-08T03:05:31;26.20;79.40
37782;DHT22;23621;50.878;4.584;2023-09-08T03:08:19;26.20;79.40
37782;DHT22;23621;50.878;4.584;2023-09-08T03:11:07;26.20;79.30
37782;DHT22;23621;50.878;4.584;2023-09-08T03:13:55;26.20;79.20
37782;DHT22;23621;50.878;4.584;2023-09-08T03:16:42;26.20;79.10
37782;DHT22;23621;50.878;4.584;2023-09-08T03:19:30;26.20;79.10
37782;DHT22;23621;50.878;4.584;2023-09-08T03:22:17;26.20;79.10
37782;DHT22;23621;50.878;4.584;2023-09-08T03:25:05;26.20;79.20
37782;DHT22;23621;50.878;4.584;2023-09-08T03:27:53;26.20;79.10
37782;DHT22;23621;50.878;4.584;2023-09-08T03:30:40;26.10;78.90
37782;DHT22;23621;50.878;4.584;2023-09-08T03:33:27;26.10;79.00
37782;DHT22;23621;50.878;4.584;2023-09-08T03:36:15;26.10;79.00
37782;DHT22;23621;50.878;4.584;2023-09-08T03:39:03;26.10;78.90
37782;DHT22;23621;50.878;4.584;2023-09-08T03:41:50;26.10;78.90
37782;DHT22;23621;50.878;4.584;2023-09-08T03:44:37;26.00;78.80
37782;DHT22;23621;50.878;4.584;2023-09-08T03:47:24;26.00;78.80
37782;DHT22;23621;50.878;4.584;2023-09-08T03:50:12;26.00;78.80
37782;DHT22;23621;50.878;4.584;2023-09-08T03:52:59;26.00;78.90
37782;DHT22;23621;50.878;4.584;2023-09-08T03:55:46;25.90;78.90
37782;DHT22;23621;50.878;4.584;2023-09-08T03:58:34;25.90;78.90
37782;DHT22;23621;50.878;4.584;2023-09-08T04:01:21;26.00;79.00
37782;DHT22;23621;50.878;4.584;2023-09-08T04:04:08;26.00;78.90
37782;DHT22;23621;50.878;4.584;2023-09-08T04:06:56;26.00;79.00
37782;DHT22;23621;50.878;4.584;2023-09-08T04:09:43;25.90;78.90
37782;DHT22;23621;50.878;4.584;2023-09-08T04:12:30;26.00;78.90
37782;DHT22;23621;50.878;4.584;2023-09-08T04:15:17;26.00;78.90
37782;DHT22;23621;50.878;4.584;2023-09-08T04:18:05;26.00;78.80
37782;DHT22;23621;50.878;4.584;2023-09-08T04:20:52;26.00;78.20
37782;DHT22;23621;50.878;4.584;2023-09-08T04:23:40;25.90;78.70
37782;DHT22;23621;50.878;4.584;2023-09-08T04:26:27;25.90;78.70
37782;DHT22;23621;50.878;4.584;2023-09-08T04:29:15;25.90;78.80
37782;DHT22;23621;50.878;4.584;2023-09-08T04:32:02;25.90;78.90
37782;DHT22;23621;50.878;4.584;2023-09-08T04:34:56;25.90;78.80
37782;DHT22;23621;50.878;4.584;2023-09-08T04:37:43;25.90;78.80
37782;DHT22;23621;50.878;4.584;2023-09-08T04:40:30;25.90;78.80
37782;DHT22;23621;50.878;4.584;2023-09-08T04:43:18;25.90;78.80
37782;DHT22;23621;50.878;4.584;2023-09-08T04:46:05;25.90;78.80
37782;DHT22;23621;50.878;4.584;2023-09-08T04:48:52;25.90;78.70
37782;DHT22;23621;50.878;4.584;2023-09-08T04:51:40;25.90;78.70
37782;DHT22;23621;50.878;4.584;2023-09-08T04:54:27;25.90;78.70
37782;DHT22;23621;50.878;4.584;2023-09-08T04:57:14;25.90;78.60
37782;DHT22;23621;50.878;4.584;2023-09-08T05:00:09;25.90;78.60
37782;DHT22;23621;50.878;4.584;2023-09-08T05:02:58;25.90;78.60
37782;DHT22;23621;50.878;4.584;2023-09-08T05:05:46;25.90;78.70
37782;DHT22;23621;50.878;4.584;2023-09-08T05:08:33;25.80;78.70
37782;DHT22;23621;50.878;4.584;2023-09-08T05:11:21;25.80;78.70
37782;DHT22;23621;50.878;4.584;2023-09-08T05:14:08;25.90;78.70
37782;DHT22;23621;50.878;4.584;2023-09-08T05:16:56;25.80;78.60
37782;DHT22;23621;50.878;4.584;2023-09-08T05:19:43;25.80;78.60
37782;DHT22;23621;50.878;4.584;2023-09-08T05:22:30;25.80;78.60
37782;DHT22;23621;50.878;4.584;2023-09-08T05:25:17;25.80;78.60
37782;DHT22;23621;50.878;4.584;2023-09-08T05:28:05;25.80;78.60
37782;DHT22;23621;50.878;4.584;2023-09-08T05:30:53;25.70;78.60
37782;DHT22;23621;50.878;4.584;2023-09-08T05:33:41;25.70;78.70
37782;DHT22;23621;50.878;4.584;2023-09-08T05:36:28;25.70;78.70
37782;DHT22;23621;50.878;4.584;2023-09-08T05:39:16;25.70;78.80
37782;DHT22;23621;50.878;4.584;2023-09-08T05:42:05;25.70;78.80
37782;DHT22;23621;50.878;4.584;2023-09-08T05:44:53;25.70;78.90
37782;DHT22;23621;50.878;4.584;2023-09-08T05:47:41;25.70;78.90
37782;DHT22;23621;50.878;4.584;2023-09-08T05:50:29;25.70;79.00
37782;DHT22;23621;50.878;4.584;2023-09-08T05:53:16;25.70;79.00
37782;DHT22;23621;50.878;4.584;2023-09-08T05:56:03;25.70;79.10
37782;DHT22;23621;50.878;4.584;2023-09-08T05:58:51;25.80;79.20
37782;DHT22;23621;50.878;4.584;2023-09-08T06:01:39;25.80;79.30
37782;DHT22;23621;50.878;4.584;2023-09-08T06:04:26;25.80;79.30
37782;DHT22;23621;50.878;4.584;2023-09-08T06:07:14;25.80;79.30
37782;DHT22;23621;50.878;4.584;2023-09-08T06:10:01;25.80;79.40
37782;DHT22;23621;50.878;4.584;2023-09-08T06:12:49;25.80;79.50
37782;DHT22;23621;50.878;4.584;2023-09-08T06:15:37;25.80;79.60
37782;DHT22;23621;50.878;4.584;2023-09-08T06:18:28;25.90;80.40
37782;DHT22;23621;50.878;4.584;2023-09-08T06:21:16;25.90;79.70
37782;DHT22;23621;50.878;4.584;2023-09-08T06:24:03;25.90;79.80
37782;DHT22;23621;50.878;4.584;2023-09-08T06:26:51;25.90;79.80
37782;DHT22;23621;50.878;4.584;2023-09-08T06:29:38;25.90;80.00
37782;DHT22;23621;50.878;4.584;2023-09-08T06:32:26;25.70;81.10
37782;DHT22;23621;50.878;4.584;2023-09-08T06:35:14;25.70;81.20
37782;DHT22;23621;50.878;4.584;2023-09-08T06:38:01;25.90;80.80
37782;DHT22;23621;50.878;4.584;2023-09-08T06:40:49;26.00;80.50
37782;DHT22;23621;50.878;4.584;2023-09-08T06:43:40;26.10;80.30
37782;DHT22;23621;50.878;4.584;2023-09-08T06:46:27;26.10;80.20
37782;DHT22;23621;50.878;4.584;2023-09-08T06:49:14;26.20;80.30
37782;DHT22;23621;50.878;4.584;2023-09-08T06:52:01;26.20;80.40
37782;DHT22;23621;50.878;4.584;2023-09-08T06:54:49;26.20;80.30
37782;DHT22;23621;50.878;4.584;2023-09-08T06:57:37;26.30;80.40
37782;DHT22;23621;50.878;4.584;2023-09-08T07:00:24;26.30;80.40
37782;DHT22;23621;50.878;4.584;2023-09-08T07:03:12;26.30;80.40
37782;DHT22;23621;50.878;4.584;2023-09-08T07:05:59;26.30;80.40
37782;DHT22;23621;50.878;4.584;2023-09-08T07:08:46;26.40;80.40
37782;DHT22;23621;50.878;4.584;2023-09-08T07:11:36;26.40;80.60
37782;DHT22;23621;50.878;4.584;2023-09-08T07:14:23;26.40;80.80
37782;DHT22;23621;50.878;4.584;2023-09-08T07:17:11;26.40;80.90
37782;DHT22;23621;50.878;4.584;2023-09-08T07:19:58;26.40;80.80
37782;DHT22;23621;50.878;4.584;2023-09-08T07:22:45;26.50;80.90
37782;DHT22;23621;50.878;4.584;2023-09-08T07:25:34;26.50;81.00
37782;DHT22;23621;50.878;4.584;2023-09-08T07:28:21;26.60;81.30
37782;DHT22;23621;50.878;4.584;2023-09-08T07:31:10;26.60;81.30
37782;DHT22;23621;50.878;4.584;2023-09-08T07:33:57;26.70;81.20
37782;DHT22;23621;50.878;4.584;2023-09-08T07:36:45;26.70;81.20
37782;DHT22;23621;50.878;4.584;2023-09-08T07:39:32;26.80;81.40
37782;DHT22;23621;50.878;4.584;2023-09-08T07:42:19;26.90;81.40
37782;DHT22;23621;50.878;4.584;2023-09-08T07:45:07;26.90;81.30
37782;DHT22;23621;50.878;4.584;2023-09-08T07:47:56;26.90;81.40
37782;DHT22;23621;50.878;4.584;2023-09-08T07:50:44;27.00;81.50
37782;DHT22;23621;50.878;4.584;2023-09-08T07:53:31;27.00;82.70
37782;DHT22;23621;50.878;4.584;2023-09-08T07:56:18;27.10;82.00
37782;DHT22;23621;50.878;4.584;2023-09-08T07:59:06;27.10;81.80
37782;DHT22;23621;50.878;4.584;2023-09-08T08:01:53;27.20;82.30
37782;DHT22;23621;50.878;4.584;2023-09-08T08:04:41;27.20;82.30
37782;DHT22;23621;50.878;4.584;2023-09-08T08:07:28;27.30;82.90
37782;DHT22;23621;50.878;4.584;2023-09-08T08:10:18;27.30;83.00
37782;DHT22;23621;50.878;4.584;2023-09-08T08:13:06;27.40;82.90
37782;DHT22;23621;50.878;4.584;2023-09-08T08:15:53;27.50;83.50
37782;DHT22;23621;50.878;4.584;2023-09-08T08:18:40;27.50;82.30
37782;DHT22;23621;50.878;4.584;2023-09-08T08:21:28;27.60;82.00
37782;DHT22;23621;50.878;4.584;2023-09-08T08:24:15;27.70;81.80
37782;DHT22;23621;50.878;4.584;2023-09-08T08:27:03;27.70;81.70
37782;DHT22;23621;50.878;4.584;2023-09-08T08:29:50;27.80;81.70
37782;DHT22;23621;50.878;4.584;2023-09-08T08:32:38;27.90;81.70
37782;DHT22;23621;50.878;4.584;2023-09-08T08:35:25;27.90;81.80
37782;DHT22;23621;50.878;4.584;2023-09-08T08:38:12;28.00;81.50
37782;DHT22;23621;50.878;4.584;2023-09-08T08:41:03;28.10;81.50
37782;DHT22;23621;50.878;4.584;2023-09-08T08:43:51;28.20;81.40
37782;DHT22;23621;50.878;4.584;2023-09-08T08:46:40;28.20;81.20
37782;DHT22;23621;50.878;4.584;2023-09-08T08:49:31;28.30;80.80
37782;DHT22;23621;50.878;4.584;2023-09-08T08:52:19;28.40;80.90
37782;DHT22;23621;50.878;4.584;2023-09-08T08:55:07;28.50;80.60
37782;DHT22;23621;50.878;4.584;2023-09-08T08:58:00;28.60;80.70
37782;DHT22;23621;50.878;4.584;2023-09-08T09:00:48;28.70;80.60
37782;DHT22;23621;50.878;4.584;2023-09-08T09:03:36;28.70;80.40
37782;DHT22;23621;50.878;4.584;2023-09-08T09:06:25;28.90;80.10
37782;DHT22;23621;50.878;4.584;2023-09-08T09:09:12;28.90;79.70
37782;DHT22;23621;50.878;4.584;2023-09-08T09:12:00;28.90;79.60
37782;DHT22;23621;50.878;4.584;2023-09-08T09:14:53;29.00;79.80
37782;DHT22;23621;50.878;4.584;2023-09-08T09:17:40;29.10;80.10
37782;DHT22;23621;50.878;4.584;2023-09-08T09:20:28;29.10;79.90
37782;DHT22;23621;50.878;4.584;2023-09-08T09:23:26;29.20;79.40
37782;DHT22;23621;50.878;4.584;2023-09-08T09:26:24;29.30;79.70
37782;DHT22;23621;50.878;4.584;2023-09-08T09:29:13;29.40;79.50
37782;DHT22;23621;50.878;4.584;2023-09-08T09:32:05;29.50;79.30
37782;DHT22;23621;50.878;4.584;2023-09-08T09:34:53;29.70;79.40
37782;DHT22;23621;50.878;4.584;2023-09-08T09:37:41;29.70;79.40
37782;DHT22;23621;50.878;4.584;2023-09-08T09:40:29;29.70;79.40
37782;DHT22;23621;50.878;4.584;2023-09-08T09:43:17;29.80;79.70
37782;DHT22;23621;50.878;4.584;2023-09-08T09:46:07;29.80;79.50
37782;DHT22;23621;50.878;4.584;2023-09-08T09:48:58;29.80;79.70
37782;DHT22;23621;50.878;4.584;2023-09-08T09:51:48;29.90;79.80
37782;DHT22;23621;50.878;4.584;2023-09-08T09:54:36;30.00;79.40
37782;DHT22;23621;50.878;4.584;2023-09-08T09:57:23;30.00;79.20
37782;DHT22;23621;50.878;4.584;2023-09-08T10:00:12;30.10;79.20
37782;DHT22;23621;50.878;4.584;2023-09-08T10:03:03;30.20;78.80
37782;DHT22;23621;50.878;4.584;2023-09-08T10:05:51;30.20;78.50
37782;DHT22;23621;50.878;4.584;2023-09-08T10:08:38;30.20;78.50
37782;DHT22;23621;50.878;4.584;2023-09-08T10:11:28;30.30;78.80
37782;DHT22;23621;50.878;4.584;2023-09-08T10:14:18;30.30;79.30
37782;DHT22;23621;50.878;4.584;2023-09-08T10:17:06;30.30;79.10
37782;DHT22;23621;50.878;4.584;2023-09-08T10:19:57;30.40;79.00
37782;DHT22;23621;50.878;4.584;2023-09-08T10:22:50;30.40;78.60
37782;DHT22;23621;50.878;4.584;2023-09-08T10:25:43;30.40;78.20
37782;DHT22;23621;50.878;4.584;2023-09-08T10:28:32;30.50;77.90
37782;DHT22;23621;50.878;4.584;2023-09-08T10:31:23;30.50;78.30
37782;DHT22;23621;50.878;4.584;2023-09-08T10:34:12;30.70;78.70
37782;DHT22;23621;50.878;4.584;2023-09-08T10:37:00;30.70;77.90
37782;DHT22;23621;50.878;4.584;2023-09-08T10:39:47;30.80;78.10
37782;DHT22;23621;50.878;4.584;2023-09-08T10:42:40;30.90;77.40
37782;DHT22;23621;50.878;4.584;2023-09-08T10:45:27;31.00;77.00
37782;DHT22;23621;50.878;4.584;2023-09-08T10:48:14;31.10;76.70
37782;DHT22;23621;50.878;4.584;2023-09-08T10:51:05;31.10;76.40
37782;DHT22;23621;50.878;4.584;2023-09-08T10:53:52;31.20;76.40
37782;DHT22;23621;50.878;4.584;2023-09-08T10:57:15;31.20;76.00
37782;DHT22;23621;50.878;4.584;2023-09-08T11:00:06;31.20;76.20
37782;DHT22;23621;50.878;4.584;2023-09-08T11:02:59;31.20;76.20
37782;DHT22;23621;50.878;4.584;2023-09-08T11:05:48;31.20;76.30
37782;DHT22;23621;50.878;4.584;2023-09-08T11:08:37;31.30;76.30
37782;DHT22;23621;50.878;4.584;2023-09-08T11:11:25;31.30;76.20
37782;DHT22;23621;50.878;4.584;2023-09-08T11:14:13;31.40;76.00
37782;DHT22;23621;50.878;4.584;2023-09-08T11:17:03;31.40;76.40
37782;DHT22;23621;50.878;4.584;2023-09-08T11:19:50;31.40;75.70
37782;DHT22;23621;50.878;4.584;2023-09-08T11:22:38;31.50;75.50
37782;DHT22;23621;50.878;4.584;2023-09-08T11:25:26;31.50;75.50
37782;DHT22;23621;50.878;4.584;2023-09-08T11:28:13;31.50;75.50
37782;DHT22;23621;50.878;4.584;2023-09-08T11:31:01;31.70;75.10
37782;DHT22;23621;50.878;4.584;2023-09-08T11:33:55;31.80;75.60
37782;DHT22;23621;50.878;4.584;2023-09-08T11:36:42;31.80;76.00
37782;DHT22;23621;50.878;4.584;2023-09-08T11:39:31;31.90;75.40
37782;DHT22;23621;50.878;4.584;2023-09-08T11:42:18;31.90;73.80
37782;DHT22;23621;50.878;4.584;2023-09-08T11:45:08;32.00;71.40
37782;DHT22;23621;50.878;4.584;2023-09-08T11:47:56;32.20;70.20
37782;DHT22;23621;50.878;4.584;2023-09-08T11:50:43;32.30;70.50
37782;DHT22;23621;50.878;4.584;2023-09-08T11:53:31;32.40;70.80
37782;DHT22;23621;50.878;4.584;2023-09-08T11:56:20;32.40;71.50
37782;DHT22;23621;50.878;4.584;2023-09-08T11:59:08;32.50;71.90
37782;DHT22;23621;50.878;4.584;2023-09-08T12:01:56;32.50;72.10
37782;DHT22;23621;50.878;4.584;2023-09-08T12:04:45;32.60;71.50
37782;DHT22;23621;50.878;4.584;2023-09-08T12:07:32;32.60;71.40
37782;DHT22;23621;50.878;4.584;2023-09-08T12:10:20;32.70;71.60
37782;DHT22;23621;50.878;4.584;2023-09-08T12:13:08;32.80;71.80
37782;DHT22;23621;50.878;4.584;2023-09-08T12:15:56;32.90;70.80
37782;DHT22;23621;50.878;4.584;2023-09-08T12:18:43;33.00;70.30
37782;DHT22;23621;50.878;4.584;2023-09-08T12:21:39;32.90;69.90
37782;DHT22;23621;50.878;4.584;2023-09-08T12:25:07;32.90;68.20
37782;DHT22;23621;50.878;4.584;2023-09-08T12:27:55;33.00;67.60
37782;DHT22;23621;50.878;4.584;2023-09-08T12:30:43;33.10;68.20
37782;DHT22;23621;50.878;4.584;2023-09-08T12:33:30;33.20;68.90
37782;DHT22;23621;50.878;4.584;2023-09-08T12:36:18;33.30;69.00
37782;DHT22;23621;50.878;4.584;2023-09-08T12:39:06;33.30;68.40
37782;DHT22;23621;50.878;4.584;2023-09-08T12:41:53;33.40;67.00
37782;DHT22;23621;50.878;4.584;2023-09-08T12:44:42;33.50;67.50
37782;DHT22;23621;50.878;4.584;2023-09-08T12:47:29;33.40;66.60
37782;DHT22;23621;50.878;4.584;2023-09-08T12:50:17;33.50;64.80
37782;DHT22;23621;50.878;4.584;2023-09-08T12:53:05;33.50;64.00
37782;DHT22;23621;50.878;4.584;2023-09-08T12:55:52;33.60;64.20
37782;DHT22;23621;50.878;4.584;2023-09-08T12:58:40;33.70;63.20
37782;DHT22;23621;50.878;4.584;2023-09-08T13:01:28;33.90;62.60
37782;DHT22;23621;50.878;4.584;2023-09-08T13:04:16;33.90;63.30
37782;DHT22;23621;50.878;4.584;2023-09-08T13:07:04;33.90;64.00
37782;DHT22;23621;50.878;4.584;2023-09-08T13:09:51;33.90;63.50
37782;DHT22;23621;50.878;4.584;2023-09-08T13:12:38;34.00;61.70
37782;DHT22;23621;50.878;4.584;2023-09-08T13:15:26;34.20;61.20
37782;DHT22;23621;50.878;4.584;2023-09-08T13:18:13;34.20;61.40
37782;DHT22;23621;50.878;4.584;2023-09-08T13:21:00;34.30;60.90
37782;DHT22;23621;50.878;4.584;2023-09-08T13:23:47;34.40;62.60
37782;DHT22;23621;50.878;4.584;2023-09-08T13:26:34;34.40;61.50
37782;DHT22;23621;50.878;4.584;2023-09-08T13:29:22;34.50;62.30
37782;DHT22;23621;50.878;4.584;2023-09-08T13:32:09;34.40;61.80
37782;DHT22;23621;50.878;4.584;2023-09-08T13:34:56;34.30;62.30
37782;DHT22;23621;50.878;4.584;2023-09-08T13:37:44;34.30;62.10
37782;DHT22;23621;50.878;4.584;2023-09-08T13:40:31;34.30;62.80
37782;DHT22;23621;50.878;4.584;2023-09-08T13:43:19;34.40;62.30
37782;DHT22;23621;50.878;4.584;2023-09-08T13:46:06;34.50;63.20
37782;DHT22;23621;50.878;4.584;2023-09-08T13:48:53;34.60;62.70
37782;DHT22;23621;50.878;4.584;2023-09-08T13:51:43;34.70;62.70
37782;DHT22;23621;50.878;4.584;2023-09-08T13:54:32;34.60;63.40
37782;DHT22;23621;50.878;4.584;2023-09-08T13:57:21;34.60;63.40
37782;DHT22;23621;50.878;4.584;2023-09-08T14:00:10;34.50;63.00
37782;DHT22;23621;50.878;4.584;2023-09-08T14:03:03;34.50;63.10
37782;DHT22;23621;50.878;4.584;2023-09-08T14:05:53;34.50;64.20
37782;DHT22;23621;50.878;4.584;2023-09-08T14:08:41;34.50;64.00
37782;DHT22;23621;50.878;4.584;2023-09-08T14:11:40;34.60;63.00
37782;DHT22;23621;50.878;4.584;2023-09-08T14:14:47;34.70;62.20
37782;DHT22;23621;50.878;4.584;2023-09-08T14:17:35;34.80;61.90
37782;DHT22;23621;50.878;4.584;2023-09-08T14:20:22;34.80;62.70
37782;DHT22;23621;50.878;4.584;2023-09-08T14:23:09;34.80;62.70
37782;DHT22;23621;50.878;4.584;2023-09-08T14:25:57;34.80;63.60
37782;DHT22;23621;50.878;4.584;2023-09-08T14:28:44;34.80;64.10
37782;DHT22;23621;50.878;4.584;2023-09-08T14:31:31;34.90;62.70
37782;DHT22;23621;50.878;4.584;2023-09-08T14:34:19;34.90;62.00
37782;DHT22;23621;50.878;4.584;2023-09-08T14:37:06;35.10;62.00
37782;DHT22;23621;50.878;4.584;2023-09-08T14:39:57;35.20;61.30
37782;DHT22;23621;50.878;4.584;2023-09-08T14:42:44;35.40;61.80
37782;DHT22;23621;50.878;4.584;2023-09-08T14:45:32;35.40;62.50
37782;DHT22;23621;50.878;4.584;2023-09-08T14:48:19;35.50;63.50
37782;DHT22;23621;50.878;4.584;2023-09-08T14:51:07;35.50;61.40
37782;DHT22;23621;50.878;4.584;2023-09-08T14:53:54;35.60;62.50
37782;DHT22;23621;50.878;4.584;2023-09-08T14:56:41;35.50;62.10
37782;DHT22;23621;50.878;4.584;2023-09-08T14:59:29;35.60;62.90
37782;DHT22;23621;50.878;4.584;2023-09-08T15:02:16;35.50;61.30
37782;DHT22;23621;50.878;4.584;2023-09-08T15:05:03;35.50;61.20
37782;DHT22;23621;50.878;4.584;2023-09-08T15:07:50;35.60;62.50
37782;DHT22;23621;50.878;4.584;2023-09-08T15:10:38;35.60;62.80
37782;DHT22;23621;50.878;4.584;2023-09-08T15:13:25;35.50;61.90
37782;DHT22;23621;50.878;4.584;2023-09-08T15:16:12;35.50;62.20
37782;DHT22;23621;50.878;4.584;2023-09-08T15:19:01;35.40;61.50
37782;DHT22;23621;50.878;4.584;2023-09-08T15:21:49;35.40;61.30
37782;DHT22;23621;50.878;4.584;2023-09-08T15:24:36;35.40;61.60
37782;DHT22;23621;50.878;4.584;2023-09-08T15:27:23;35.40;62.80
37782;DHT22;23621;50.878;4.584;2023-09-08T15:30:13;35.30;63.00
37782;DHT22;23621;50.878;4.584;2023-09-08T15:33:04;35.30;63.40
37782;DHT22;23621;50.878;4.584;2023-09-08T15:35:53;35.30;63.20
37782;DHT22;23621;50.878;4.584;2023-09-08T15:38:43;35.30;63.20
37782;DHT22;23621;50.878;4.584;2023-09-08T15:41:31;35.20;63.80
37782;DHT22;23621;50.878;4.584;2023-09-08T15:44:18;35.20;63.10
37782;DHT22;23621;50.878;4.584;2023-09-08T15:47:05;35.20;63.20
37782;DHT22;23621;50.878;4.584;2023-09-08T15:49:52;35.20;62.80
37782;DHT22;23621;50.878;4.584;2023-09-08T15:52:40;35.10;63.20
37782;DHT22;23621;50.878;4.584;2023-09-08T15:55:27;35.10;63.50
37782;DHT22;23621;50.878;4.584;2023-09-08T15:58:14;35.10;63.20
37782;DHT22;23621;50.878;4.584;2023-09-08T16:01:02;35.10;63.40
37782;DHT22;23621;50.878;4.584;2023-09-08T16:03:50;35.10;63.60
37782;DHT22;23621;50.878;4.584;2023-09-08T16:06:37;35.10;63.60
37782;DHT22;23621;50.878;4.584;2023-09-08T16:09:25;35.10;63.90
37782;DHT22;23621;50.878;4.584;2023-09-08T16:12:12;35.10;63.60
37782;DHT22;23621;50.878;4.584;2023-09-08T16:14:59;35.10;63.20
37782;DHT22;23621;50.878;4.584;2023-09-08T16:17:47;35.10;63.10
37782;DHT22;23621;50.878;4.584;2023-09-08T16:20:35;35.10;63.80
37782;DHT22;23621;50.878;4.584;2023-09-08T16:23:25;35.10;64.30
37782;DHT22;23621;50.878;4.584;2023-09-08T16:26:13;35.10;65.00
37782;DHT22;23621;50.878;4.584;2023-09-08T16:29:01;35.00;65.60
37782;DHT22;23621;50.878;4.584;2023-09-08T16:31:48;35.00;65.50
37782;DHT22;23621;50.878;4.584;2023-09-08T16:34:35;34.90;66.40
37782;DHT22;23621;50.878;4.584;2023-09-08T16:37:23;34.90;66.80
37782;DHT22;23621;50.878;4.584;2023-09-08T16:40:10;34.90;67.30
37782;DHT22;23621;50.878;4.584;2023-09-08T16:42:58;34.80;67.40
37782;DHT22;23621;50.878;4.584;2023-09-08T16:45:49;34.80;67.00
37782;DHT22;23621;50.878;4.584;2023-09-08T16:48:36;34.70;65.90
37782;DHT22;23621;50.878;4.584;2023-09-08T16:51:24;34.70;66.10
37782;DHT22;23621;50.878;4.584;2023-09-08T16:54:11;34.70;66.00
37782;DHT22;23621;50.878;4.584;2023-09-08T16:56:59;34.60;66.50
37782;DHT22;23621;50.878;4.584;2023-09-08T16:59:47;34.60;66.40
37782;DHT22;23621;50.878;4.584;2023-09-08T17:02:35;34.50;66.30
37782;DHT22;23621;50.878;4.584;2023-09-08T17:05:23;34.50;66.80
37782;DHT22;23621;50.878;4.584;2023-09-08T17:08:10;34.50;67.10
37782;DHT22;23621;50.878;4.584;2023-09-08T17:11:03;34.40;67.20
37782;DHT22;23621;50.878;4.584;2023-09-08T17:13:51;34.40;67.80
37782;DHT22;23621;50.878;4.584;2023-09-08T17:16:38;34.40;68.10
37782;DHT22;23621;50.878;4.584;2023-09-08T17:19:25;34.30;68.20
37782;DHT22;23621;50.878;4.584;2023-09-08T17:22:13;34.30;68.40
37782;DHT22;23621;50.878;4.584;2023-09-08T17:25:00;34.20;68.40
37782;DHT22;23621;50.878;4.584;2023-09-08T17:27:48;34.20;68.80
37782;DHT22;23621;50.878;4.584;2023-09-08T17:30:36;34.10;69.30
37782;DHT22;23621;50.878;4.584;2023-09-08T17:33:23;34.10;69.60
37782;DHT22;23621;50.878;4.584;2023-09-08T17:36:10;34.10;70.10
37782;DHT22;23621;50.878;4.584;2023-09-08T17:38:58;33.90;70.60
37782;DHT22;23621;50.878;4.584;2023-09-08T17:41:45;33.90;71.20
37782;DHT22;23621;50.878;4.584;2023-09-08T17:44:35;33.70;71.50